createdAt,value
2022-09-21T00:01:14.134Z,98.50
2022-09-21T00:03:42.705Z,98.50
2022-09-21T00:06:13.395Z,98.60
2022-09-21T00:08:43.202Z,98.60
2022-09-21T00:11:14.025Z,98.60
2022-09-21T00:13:43.749Z,98.50
2022-09-21T00:16:11.752Z,98.60
2022-09-21T00:18:40.112Z,98.70
2022-09-21T00:21:09.420Z,98.80
2022-09-21T00:23:38.105Z,98.70
2022-09-21T00:26:10.855Z,98.60
2022-09-21T00:28:40.523Z,98.60
2022-09-21T00:31:12.213Z,98.70
2022-09-21T00:33:40.869Z,98.80
2022-09-21T00:36:10.941Z,99.00
2022-09-21T00:38:39.522Z,99.00
2022-09-21T00:41:10.513Z,99.10
2022-09-21T00:43:43.596Z,99.10
2022-09-21T00:46:18.738Z,99.40
2022-09-21T00:48:47.047Z,99.30
2022-09-21T00:51:15.798Z,99.20
2022-09-21T00:53:44.968Z,99.40
2022-09-21T00:56:15.464Z,99.10
2022-09-21T00:58:48.022Z,99.10
2022-09-21T01:01:18.375Z,99.10
2022-09-21T01:03:47.567Z,99.00
2022-09-21T01:06:17.749Z,99.00
2022-09-21T01:08:47.419Z,99.10
2022-09-21T01:11:34.318Z,99.00
2022-09-21T01:14:27.805Z,98.90
2022-09-21T01:17:03.471Z,98.90
2022-09-21T01:20:08.077Z,98.90
2022-09-21T01:22:51.636Z,99.00
2022-09-21T01:25:32.278Z,98.90
2022-09-21T01:28:16.460Z,99.00
2022-09-21T01:30:49.235Z,99.10
2022-09-21T01:33:23.253Z,98.90
2022-09-21T01:35:57.345Z,98.70
2022-09-21T01:38:29.003Z,98.60
2022-09-21T01:41:02.565Z,98.60
2022-09-21T01:43:34.848Z,98.60
2022-09-21T01:46:07.251Z,98.60
2022-09-21T01:48:39.545Z,98.70
2022-09-21T01:51:12.271Z,98.70
2022-09-21T01:53:44.538Z,98.60
2022-09-21T01:56:16.844Z,98.60
2022-09-21T01:58:51.236Z,98.60
2022-09-21T02:01:25.334Z,98.50
2022-09-21T02:03:57.440Z,98.40
2022-09-21T02:06:27.744Z,98.40
2022-09-21T02:08:55.945Z,98.50
2022-09-21T02:11:24.012Z,98.50
2022-09-21T02:13:54.928Z,98.50
2022-09-21T02:16:37.564Z,98.60
2022-09-21T02:19:13.567Z,98.80
2022-09-21T02:21:55.501Z,98.70
2022-09-21T02:24:32.129Z,98.90
2022-09-21T02:27:06.039Z,99.10
2022-09-21T02:29:45.540Z,99.20
2022-09-21T02:32:26.363Z,99.10
2022-09-21T02:35:03.348Z,99.20
2022-09-21T02:37:38.305Z,99.30
2022-09-21T02:40:13.246Z,99.20
2022-09-21T02:42:43.832Z,99.20
2022-09-21T02:45:16.342Z,99.30
2022-09-21T02:47:49.468Z,99.20
2022-09-21T02:50:21.563Z,99.20
2022-09-21T02:52:50.072Z,99.10
2022-09-21T02:55:19.146Z,99.20
2022-09-21T02:57:48.954Z,99.30
2022-09-21T03:00:17.606Z,99.80
2022-09-21T03:02:47.050Z,99.40
2022-09-21T03:05:16.042Z,99.70
2022-09-21T03:07:44.015Z,99.70
2022-09-21T03:10:12.322Z,99.90
2022-09-21T03:12:40.367Z,99.90
2022-09-21T03:15:08.854Z,99.90
2022-09-21T03:17:36.811Z,99.90
2022-09-21T03:20:08.007Z,99.90
2022-09-21T03:22:35.978Z,99.90
2022-09-21T03:25:04.173Z,99.90
2022-09-21T03:27:32.128Z,99.90
2022-09-21T03:30:02.324Z,99.90
2022-09-21T03:32:30.928Z,99.90
2022-09-21T03:34:59.292Z,99.90
2022-09-21T03:37:31.160Z,99.90
2022-09-21T03:40:00.294Z,99.90
2022-09-21T03:42:28.487Z,99.90
2022-09-21T03:44:56.498Z,99.90
2022-09-21T03:47:24.556Z,99.90
2022-09-21T03:49:52.509Z,99.90
2022-09-21T03:52:20.502Z,99.80
2022-09-21T03:54:50.255Z,99.80
2022-09-21T03:57:18.331Z,99.70
2022-09-21T03:59:46.458Z,99.70
2022-09-21T04:02:14.438Z,99.70
2022-09-21T04:04:42.575Z,99.60
2022-09-21T04:07:10.564Z,99.70
2022-09-21T04:09:38.561Z,99.80
2022-09-21T04:12:07.986Z,99.70
2022-09-21T04:14:36.986Z,99.60
2022-09-21T04:17:05.590Z,99.50
2022-09-21T04:19:34.298Z,99.50
2022-09-21T04:22:02.380Z,99.70
2022-09-21T04:24:30.996Z,99.50
2022-09-21T04:26:59.256Z,99.50
2022-09-21T04:29:28.597Z,99.40
2022-09-21T04:31:58.102Z,99.50
2022-09-21T04:34:26.474Z,99.50
2022-09-21T04:36:54.704Z,99.50
2022-09-21T04:39:24.150Z,99.40
2022-09-21T04:41:52.233Z,99.30
2022-09-21T04:44:20.492Z,99.20
2022-09-21T04:46:49.807Z,99.20
2022-09-21T04:49:17.920Z,99.30
2022-09-21T04:51:45.937Z,99.40
2022-09-21T04:54:13.932Z,99.40
2022-09-21T04:56:42.017Z,99.40
2022-09-21T04:59:10.784Z,99.50
2022-09-21T05:01:38.990Z,99.50
2022-09-21T05:04:08.606Z,99.50
2022-09-21T05:06:36.684Z,99.40
2022-09-21T05:09:22.221Z,99.40
2022-09-21T05:11:50.923Z,99.40
2022-09-21T05:14:18.961Z,99.40
2022-09-21T05:16:49.536Z,99.40
2022-09-21T05:19:19.026Z,99.40
2022-09-21T05:21:47.192Z,99.30
2022-09-21T05:24:15.107Z,99.30
2022-09-21T05:26:43.067Z,99.30
2022-09-21T05:29:11.554Z,99.30
2022-09-21T05:31:45.625Z,99.40
2022-09-21T05:34:34.263Z,99.20
2022-09-21T05:50:05.965Z,99.30
2022-09-21T05:52:43.183Z,99.10
2022-09-21T05:55:26.154Z,99.20
2022-09-21T05:58:02.054Z,99.20
2022-09-21T06:00:39.372Z,99.30
2022-09-21T06:03:29.207Z,99.30
2022-09-21T06:05:59.113Z,99.30
2022-09-21T06:08:27.733Z,98.90
2022-09-21T06:10:56.798Z,98.90
2022-09-21T06:13:24.679Z,98.90
2022-09-21T06:15:54.452Z,98.80
2022-09-21T06:18:22.460Z,98.90
2022-09-21T06:20:50.371Z,99.10
2022-09-21T06:23:19.951Z,99.20
2022-09-21T06:25:56.062Z,99.30
2022-09-21T06:28:27.863Z,99.30
2022-09-21T06:30:57.385Z,99.50
2022-09-21T06:33:26.129Z,99.30
2022-09-21T06:35:56.876Z,99.20
2022-09-21T06:38:27.511Z,99.30
2022-09-21T06:40:55.750Z,99.30
2022-09-21T06:43:23.838Z,99.40
2022-09-21T06:45:56.584Z,99.60
2022-09-21T06:48:24.755Z,99.80
2022-09-21T06:50:57.245Z,99.60
2022-09-21T06:53:27.454Z,99.60
2022-09-21T06:55:55.386Z,99.60
2022-09-21T06:58:23.290Z,99.70
2022-09-21T07:00:51.399Z,99.60
2022-09-21T07:03:19.350Z,99.60
2022-09-21T07:05:47.406Z,99.40
2022-09-21T07:11:04.966Z,99.30
2022-09-21T07:13:33.152Z,99.20
2022-09-21T07:16:05.133Z,99.10
2022-09-21T07:18:42.535Z,99.10
2022-09-21T07:21:12.229Z,99.00
2022-09-21T07:23:40.308Z,98.90
2022-09-21T07:26:12.055Z,98.80
2022-09-21T07:28:40.515Z,98.90
2022-09-21T07:31:10.085Z,98.80
2022-09-21T07:33:38.901Z,98.70
2022-09-21T07:36:10.578Z,98.50
2022-09-21T07:38:40.407Z,98.60
2022-09-21T07:41:10.569Z,97.90
2022-09-21T07:43:39.262Z,98.00
2022-09-21T07:46:07.916Z,97.70
2022-09-21T07:48:36.115Z,97.60
2022-09-21T07:51:06.351Z,97.40
2022-09-21T07:53:34.441Z,97.40
2022-09-21T07:56:03.458Z,97.60
2022-09-21T07:58:50.809Z,97.60
2022-09-21T08:01:18.932Z,97.70
2022-09-21T08:03:49.416Z,97.70
2022-09-21T08:06:17.360Z,97.60
2022-09-21T08:08:45.795Z,97.50
2022-09-21T08:11:13.657Z,97.70
2022-09-21T08:13:42.992Z,97.60
2022-09-21T08:16:11.306Z,97.60
2022-09-21T08:18:40.544Z,97.60
2022-09-21T08:21:12.043Z,97.60
2022-09-21T08:23:42.652Z,97.30
2022-09-21T08:26:16.321Z,97.10
2022-09-21T08:28:48.970Z,97.10
2022-09-21T08:31:19.280Z,96.90
2022-09-21T08:33:47.755Z,96.90
2022-09-21T08:36:16.081Z,96.80
2022-09-21T08:38:43.995Z,96.40
2022-09-21T08:41:19.854Z,95.80
2022-09-21T08:43:53.133Z,95.80
2022-09-21T08:46:23.875Z,95.90
2022-09-21T08:48:57.750Z,95.90
2022-09-21T08:51:29.427Z,95.50
2022-09-21T08:54:01.662Z,96.00
2022-09-21T08:56:41.890Z,96.20
2022-09-21T08:59:16.777Z,96.40
2022-09-21T09:01:59.531Z,96.40
2022-09-21T09:04:47.102Z,96.20
2022-09-21T09:07:30.295Z,96.40
2022-09-21T09:10:12.567Z,96.50
2022-09-21T09:12:52.412Z,96.50
2022-09-21T09:15:53.433Z,96.70
2022-09-21T09:18:30.221Z,96.60
2022-09-21T09:21:01.773Z,96.30
2022-09-21T09:23:35.823Z,95.80
2022-09-21T09:26:08.917Z,95.70
2022-09-21T09:28:42.964Z,95.80
2022-09-21T09:31:19.453Z,95.80
2022-09-21T09:33:54.925Z,95.00
2022-09-21T09:36:46.632Z,94.90
2022-09-21T09:39:13.738Z,94.90
2022-09-21T09:42:00.045Z,94.90
2022-09-21T09:44:50.959Z,94.70
2022-09-21T09:47:32.253Z,94.60
2022-09-21T09:50:06.022Z,94.20
2022-09-21T09:52:34.677Z,92.90
2022-09-21T09:55:12.249Z,93.50
2022-09-21T09:57:40.283Z,93.90
2022-09-21T10:00:12.127Z,93.50
2022-09-21T10:02:50.400Z,93.60
2022-09-21T10:05:24.718Z,93.70
2022-09-21T10:07:53.901Z,92.60
2022-09-21T10:10:32.556Z,92.20
2022-09-21T10:13:12.570Z,91.90
2022-09-21T10:15:46.905Z,91.90
2022-09-21T10:18:26.045Z,91.70
2022-09-21T10:20:56.822Z,92.00
2022-09-21T10:23:26.336Z,91.50
2022-09-21T10:25:57.415Z,91.50
2022-09-21T10:28:25.983Z,91.10
2022-09-21T10:31:13.109Z,91.30
2022-09-21T10:33:55.435Z,91.00
2022-09-21T10:36:34.969Z,91.10
2022-09-21T10:39:24.028Z,91.00
2022-09-21T10:42:01.470Z,91.20
2022-09-21T10:44:39.353Z,91.10
2022-09-21T10:47:21.261Z,90.30
2022-09-21T10:49:53.828Z,90.10
2022-09-21T10:52:24.964Z,90.10
2022-09-21T10:54:56.792Z,90.30
2022-09-21T10:57:27.483Z,90.10
2022-09-21T10:59:57.242Z,90.70
2022-09-21T11:02:35.708Z,90.10
2022-09-21T11:05:10.946Z,90.30
2022-09-21T11:07:44.554Z,88.60
2022-09-21T11:10:21.303Z,86.60
2022-09-21T11:13:12.634Z,85.90
2022-09-21T11:15:48.165Z,87.30
2022-09-21T11:18:23.173Z,88.80
2022-09-21T11:20:56.186Z,90.00
2022-09-21T11:23:37.423Z,92.10
2022-09-21T11:26:14.856Z,85.80
2022-09-21T11:28:49.225Z,86.70
2022-09-21T11:31:34.030Z,86.80
2022-09-21T11:34:26.981Z,85.50
2022-09-21T11:37:09.898Z,86.20
2022-09-21T11:39:50.483Z,85.50
2022-09-21T11:42:33.870Z,87.20
2022-09-21T11:45:03.832Z,86.80
2022-09-21T11:47:55.912Z,85.40
2022-09-21T11:50:57.481Z,86.90
2022-09-21T11:53:38.128Z,84.80
2022-09-21T11:56:32.167Z,86.00
2022-09-21T11:59:10.498Z,86.70
2022-09-21T12:02:01.131Z,85.90
2022-09-21T12:04:42.584Z,86.90
2022-09-21T12:07:24.955Z,91.50
2022-09-21T12:10:08.827Z,84.30
2022-09-21T12:12:45.337Z,86.00
2022-09-21T12:15:19.572Z,81.90
2022-09-21T12:17:55.272Z,80.30
2022-09-21T12:20:31.869Z,84.60
2022-09-21T12:23:04.463Z,83.30
2022-09-21T12:25:37.015Z,79.60
2022-09-21T12:28:13.029Z,78.50
2022-09-21T12:30:45.500Z,78.10
2022-09-21T12:33:20.513Z,75.70
2022-09-21T12:38:25.103Z,74.00
2022-09-21T12:41:00.052Z,72.20
2022-09-21T12:43:35.904Z,75.30
2022-09-21T12:46:13.790Z,73.40
2022-09-21T12:48:42.395Z,70.20
2022-09-21T12:51:16.839Z,72.40
2022-09-21T12:53:51.043Z,73.30
2022-09-21T12:56:29.815Z,70.60
2022-09-21T12:59:09.865Z,71.20
2022-09-21T13:01:44.446Z,71.10
2022-09-21T13:04:31.242Z,72.10
2022-09-21T13:07:35.293Z,72.30
2022-09-21T13:10:19.758Z,71.60
2022-09-21T13:12:55.102Z,69.90
2022-09-21T13:15:28.035Z,70.90
2022-09-21T13:18:01.732Z,72.50
2022-09-21T13:20:36.182Z,67.50
2022-09-21T13:23:05.338Z,70.30
2022-09-21T13:25:37.497Z,67.10
2022-09-21T13:28:19.849Z,67.90
2022-09-21T13:30:50.170Z,66.40
2022-09-21T13:33:33.545Z,66.90
2022-09-21T13:36:05.423Z,68.80
2022-09-21T13:38:37.418Z,67.00
2022-09-21T13:41:35.453Z,65.00
2022-09-21T13:44:40.474Z,61.30
2022-09-21T13:47:10.170Z,60.00
2022-09-21T13:49:45.131Z,59.10
2022-09-21T13:52:28.630Z,53.80
2022-09-21T13:55:00.642Z,52.70
2022-09-21T13:57:36.797Z,52.60
2022-09-21T14:00:33.151Z,52.80
2022-09-21T14:03:04.327Z,52.50
2022-09-21T14:05:36.840Z,51.50
2022-09-21T14:08:08.306Z,52.00
2022-09-21T14:10:39.006Z,50.00
2022-09-21T14:13:24.459Z,51.50
2022-09-21T14:15:53.833Z,47.90
2022-09-21T14:18:37.547Z,50.20
2022-09-21T14:21:17.169Z,51.90
2022-09-21T14:24:19.063Z,54.10
2022-09-21T14:27:03.436Z,53.30
2022-09-21T14:29:40.177Z,54.60
2022-09-21T14:32:18.056Z,52.90
2022-09-21T14:34:49.423Z,52.40
2022-09-21T14:37:31.975Z,51.70
2022-09-21T14:40:05.815Z,52.70
2022-09-21T14:42:34.089Z,53.80
2022-09-21T14:45:03.935Z,54.10
2022-09-21T14:47:52.529Z,55.40
2022-09-21T14:50:31.475Z,55.50
2022-09-21T14:53:29.247Z,56.90
2022-09-21T14:56:10.696Z,57.50
2022-09-21T14:58:52.052Z,57.10
2022-09-21T15:01:37.659Z,56.00
2022-09-21T15:04:46.327Z,57.30
2022-09-21T15:07:45.095Z,58.00
2022-09-21T15:10:40.185Z,58.10
2022-09-21T15:13:19.715Z,58.60
2022-09-21T15:16:07.312Z,59.20
2022-09-21T15:18:41.846Z,59.10
2022-09-21T15:21:24.112Z,59.20
2022-09-21T15:23:53.103Z,58.60
2022-09-21T15:26:29.275Z,60.20
2022-09-21T15:29:15.675Z,60.60
2022-09-21T15:31:43.866Z,60.90
2022-09-21T15:34:15.053Z,61.10
2022-09-21T15:36:48.692Z,60.80
2022-09-21T15:39:28.547Z,60.40
2022-09-21T15:42:17.935Z,60.30
2022-09-21T15:44:48.442Z,59.40
2022-09-21T15:47:19.340Z,59.50
2022-09-21T15:49:47.988Z,58.90
2022-09-21T15:52:25.266Z,58.30
2022-09-21T15:54:58.360Z,57.90
2022-09-21T15:57:38.834Z,57.70
2022-09-21T16:00:19.211Z,57.50
2022-09-21T16:03:04.814Z,56.40
2022-09-21T16:05:45.393Z,57.00
2022-09-21T16:08:34.444Z,56.80
2022-09-21T16:11:18.853Z,57.70
2022-09-21T16:14:05.880Z,57.40
2022-09-21T16:16:34.142Z,58.50
2022-09-21T16:19:02.093Z,58.00
2022-09-21T16:21:33.572Z,56.90
2022-09-21T16:24:17.944Z,55.30
2022-09-21T16:26:58.029Z,56.10
2022-09-21T16:29:27.791Z,54.60
2022-09-21T16:32:26.381Z,55.00
2022-09-21T16:34:55.528Z,56.20
2022-09-21T16:37:28.975Z,56.50
2022-09-21T16:39:59.997Z,56.50
2022-09-21T16:42:32.758Z,56.90
2022-09-21T16:45:01.399Z,57.40
2022-09-21T16:47:29.807Z,57.80
2022-09-21T16:50:01.458Z,58.10
2022-09-21T16:52:30.847Z,58.40
2022-09-21T16:55:01.216Z,58.70
2022-09-21T16:57:29.274Z,59.50
2022-09-21T16:59:58.164Z,59.90
2022-09-21T17:02:26.113Z,60.20
2022-09-21T17:04:54.109Z,60.90
2022-09-21T17:07:22.081Z,61.40
2022-09-21T17:09:50.574Z,63.70
2022-09-21T17:12:20.289Z,63.90
2022-09-21T17:14:50.041Z,64.30
2022-09-21T17:17:21.214Z,66.00
2022-09-21T17:19:50.710Z,67.20
2022-09-21T17:22:19.290Z,67.50
2022-09-21T17:24:51.813Z,69.30
2022-09-21T17:27:25.319Z,69.00
2022-09-21T17:29:55.161Z,69.20
2022-09-21T17:32:25.183Z,69.80
2022-09-21T17:34:58.574Z,71.70
2022-09-21T17:37:26.808Z,71.80
2022-09-21T17:39:54.750Z,72.10
2022-09-21T17:42:25.613Z,72.20
2022-09-21T17:45:12.850Z,73.00
2022-09-21T17:47:41.940Z,72.50
2022-09-21T17:50:19.548Z,72.80
2022-09-21T17:53:05.637Z,73.50
2022-09-21T17:55:34.038Z,74.00
2022-09-21T17:58:16.632Z,73.50
2022-09-21T18:00:53.021Z,74.90
2022-09-21T18:03:23.429Z,75.00
2022-09-21T18:05:55.774Z,75.20
2022-09-21T18:08:26.408Z,76.10
2022-09-21T18:11:03.633Z,76.60
2022-09-21T18:13:42.164Z,77.80
2022-09-21T18:16:23.187Z,78.40
2022-09-21T18:18:59.363Z,77.80
2022-09-21T18:21:28.019Z,79.30
2022-09-21T18:24:30.802Z,77.30
2022-09-21T18:27:00.181Z,80.30
2022-09-21T18:29:41.151Z,80.60
2022-09-21T18:32:29.316Z,81.40
2022-09-21T18:35:10.854Z,82.10
2022-09-21T18:37:49.919Z,82.90
2022-09-21T18:40:23.443Z,84.20
2022-09-21T18:42:57.317Z,83.90
2022-09-21T18:45:31.843Z,84.50
2022-09-21T18:48:21.367Z,84.90
2022-09-21T18:50:57.913Z,86.20
2022-09-21T18:53:33.908Z,85.90
2022-09-21T18:56:02.516Z,85.30
2022-09-21T18:58:31.104Z,85.10
2022-09-21T19:01:01.164Z,86.30
2022-09-21T19:03:29.901Z,86.00
2022-09-21T19:06:21.151Z,85.50
2022-09-21T19:08:59.237Z,86.30
2022-09-21T19:11:34.714Z,86.70
2022-09-21T19:14:09.696Z,86.90
2022-09-21T19:16:47.919Z,87.80
2022-09-21T19:19:37.331Z,87.20
2022-09-21T19:22:13.222Z,87.50
2022-09-21T19:24:49.908Z,87.80
2022-09-21T19:27:27.550Z,90.00
2022-09-21T19:30:04.514Z,89.40
2022-09-21T19:32:44.868Z,89.50
2022-09-21T19:35:19.200Z,89.10
2022-09-21T19:37:48.280Z,90.60
2022-09-21T19:40:17.793Z,90.50
2022-09-21T19:43:01.656Z,90.50
2022-09-21T19:45:39.942Z,90.70
2022-09-21T19:48:14.767Z,90.80
2022-09-21T19:50:49.653Z,90.90
2022-09-21T19:53:35.798Z,91.30
2022-09-21T19:56:26.868Z,91.70
2022-09-21T19:59:12.793Z,91.50
2022-09-21T20:01:44.392Z,92.10
2022-09-21T20:04:16.122Z,91.80
2022-09-21T20:06:54.216Z,92.10
2022-09-21T20:09:29.060Z,92.20
2022-09-21T20:12:07.795Z,92.60
2022-09-21T20:14:40.820Z,93.00
2022-09-21T20:17:12.240Z,92.90
2022-09-21T20:19:55.824Z,92.80
2022-09-21T20:22:33.638Z,93.20
2022-09-21T20:25:07.475Z,93.10
2022-09-21T20:27:40.095Z,93.30
2022-09-21T20:30:10.719Z,93.20
2022-09-21T20:32:42.135Z,93.20
2022-09-21T20:35:16.937Z,93.20
2022-09-21T20:37:45.038Z,93.50
2022-09-21T20:40:13.852Z,93.30
2022-09-21T20:42:42.804Z,93.40
2022-09-21T20:45:12.922Z,93.50
2022-09-21T20:47:41.021Z,93.70
2022-09-21T20:50:12.728Z,93.60
2022-09-21T20:52:43.060Z,93.80
2022-09-21T20:55:13.479Z,93.80
2022-09-21T20:57:41.646Z,94.00
2022-09-21T21:00:12.404Z,93.60
2022-09-21T21:02:40.646Z,94.20
2022-09-21T21:05:10.377Z,94.40
2022-09-21T21:07:38.771Z,94.60
2022-09-21T21:10:11.816Z,94.60
2022-09-21T21:12:40.076Z,94.90
2022-09-21T21:15:09.064Z,94.80
2022-09-21T21:17:37.096Z,95.00
2022-09-21T21:20:06.486Z,95.10
2022-09-21T21:22:36.243Z,94.80
2022-09-21T21:25:04.752Z,94.40
2022-09-21T21:27:33.984Z,94.60
2022-09-21T21:30:02.024Z,95.10
2022-09-21T21:32:32.367Z,94.90
2022-09-21T21:35:00.469Z,95.10
2022-09-21T21:37:29.263Z,94.90
2022-09-21T21:39:57.704Z,95.00
2022-09-21T21:42:29.251Z,95.10
2022-09-21T21:44:59.065Z,94.90
2022-09-21T21:47:39.447Z,95.60
2022-09-21T21:50:09.780Z,95.50
2022-09-21T21:52:37.976Z,95.80
2022-09-21T21:55:07.022Z,95.70
2022-09-21T21:57:35.024Z,95.70
2022-09-21T22:00:06.708Z,95.60
2022-09-21T22:02:34.807Z,95.80
2022-09-21T22:05:02.828Z,95.80
2022-09-21T22:07:30.825Z,95.80
2022-09-21T22:09:58.688Z,95.70
2022-09-21T22:12:26.667Z,95.90
2022-09-21T22:14:54.654Z,95.70
2022-09-21T22:17:24.164Z,96.10
2022-09-21T22:19:52.284Z,96.00
2022-09-21T22:22:20.286Z,96.10
2022-09-21T22:24:48.292Z,96.10
2022-09-21T22:27:16.392Z,96.00
2022-09-21T22:29:44.947Z,96.40
2022-09-21T22:32:12.845Z,96.10
2022-09-21T22:34:42.342Z,96.00
2022-09-21T22:37:10.258Z,96.20
2022-09-21T22:39:38.450Z,96.30
2022-09-21T22:42:06.575Z,96.10
2022-09-21T22:44:34.769Z,96.00
2022-09-21T22:47:02.686Z,96.00
2022-09-21T22:49:30.619Z,95.90
2022-09-21T22:52:00.105Z,96.40
2022-09-21T22:54:28.140Z,96.60
2022-09-21T22:56:56.015Z,96.40
2022-09-21T22:59:24.040Z,96.30
2022-09-21T23:01:52.042Z,96.20
2022-09-21T23:04:21.161Z,96.40
2022-09-21T23:06:50.203Z,96.10
2022-09-21T23:09:21.692Z,96.20
2022-09-21T23:11:53.039Z,96.30
2022-09-21T23:14:22.108Z,96.20
2022-09-21T23:16:50.515Z,96.20
2022-09-21T23:19:18.413Z,96.20
2022-09-21T23:21:49.421Z,96.00
2022-09-21T23:24:19.634Z,95.90
2022-09-21T23:26:50.487Z,95.90
2022-09-21T23:29:18.409Z,96.00
2022-09-21T23:31:46.657Z,96.40
2022-09-21T23:34:15.601Z,96.80
2022-09-21T23:36:43.881Z,96.80
2022-09-21T23:39:13.289Z,96.80
2022-09-21T23:41:43.512Z,96.80
2022-09-21T23:44:12.513Z,96.90
2022-09-21T23:46:41.736Z,96.80
2022-09-21T23:49:09.923Z,97.00
2022-09-21T23:51:37.930Z,97.10
2022-09-21T23:54:06.420Z,97.10
2022-09-21T23:56:34.887Z,97.20
2022-09-21T23:59:05.456Z,97.20
